Time;durP1;ratioP1;P1;durP2;ratioP2;P2;SDS_P1;SDS_P2;PMS_P1;PMS_P2;Temp;Humidity;BMP_temperature;BMP_pressure;BME280_temperature;BME280_humidity;BME280_pressure;Samples;Min_cycle;Max_cycle;Signal;HPM_P1;HPM_P2
2022/07/28 00:01:46;;;;;;;4.65;1.33;;;12.50;99.90;;;;;;5097058;28;20054;-76
2022/07/28 00:04:12;;;;;;;4.05;1.27;;;12.50;99.90;;;;;;5095485;28;20093;-77
2022/07/28 00:06:37;;;;;;;4.40;1.30;;;12.50;99.90;;;;;;5115406;28;20060;-74
2022/07/28 00:09:03;;;;;;;3.65;1.30;;;12.50;99.90;;;;;;5095770;28;20494;-75
2022/07/28 00:11:29;;;;;;;4.20;1.10;;;12.40;99.90;;;;;;5096874;28;20047;-74
2022/07/28 00:13:55;;;;;;;4.28;1.30;;;12.40;99.90;;;;;;5097260;28;20047;-74
2022/07/28 00:16:20;;;;;;;3.85;1.27;;;12.40;99.90;;;;;;5114979;28;20383;-74
2022/07/28 00:18:46;;;;;;;3.50;1.20;;;12.40;99.90;;;;;;5096691;28;20039;-74
2022/07/28 00:21:12;;;;;;;4.32;1.20;;;12.30;99.90;;;;;;5113397;28;20046;-77
2022/07/28 00:23:38;;;;;;;4.20;1.40;;;12.30;99.90;;;;;;5080011;28;20130;-74
2022/07/28 00:26:04;;;;;;;4.55;1.27;;;12.30;99.90;;;;;;5096477;28;20054;-74
2022/07/28 00:28:30;;;;;;;5.00;1.50;;;12.30;99.90;;;;;;5096601;28;20044;-74
2022/07/28 00:30:55;;;;;;;6.93;1.42;;;12.20;99.90;;;;;;5095882;28;20082;-77
2022/07/28 00:33:21;;;;;;;4.78;1.45;;;12.20;99.90;;;;;;5078739;28;20404;-74
2022/07/28 00:35:47;;;;;;;3.42;1.20;;;12.20;99.90;;;;;;5097113;28;20051;-74
2022/07/28 00:38:13;;;;;;;4.90;1.33;;;12.20;99.90;;;;;;5060946;28;20475;-75
2022/07/28 00:43:23;;;;;;;6.32;1.38;;;12.30;99.90;;;;;;5094864;28;20113;-74
2022/07/28 00:45:49;;;;;;;4.25;1.30;;;12.20;99.90;;;;;;5088628;28;20056;-75
2022/07/28 00:48:14;;;;;;;6.03;1.40;;;12.30;99.90;;;;;;5091262;28;20054;-73
2022/07/28 00:50:41;;;;;;;5.30;1.50;;;12.30;99.90;;;;;;5086148;28;20486;-73
2022/07/28 00:53:07;;;;;;;4.28;1.48;;;12.30;99.90;;;;;;5096023;28;20053;-74
2022/07/28 00:55:33;;;;;;;8.13;1.58;;;12.30;99.90;;;;;;5096297;28;20044;-74
2022/07/28 00:57:59;;;;;;;4.30;1.40;;;12.30;99.90;;;;;;5079516;28;20044;-74
2022/07/28 01:00:25;;;;;;;4.03;1.27;;;12.20;99.90;;;;;;5103564;28;20039;-74
2022/07/28 01:02:51;;;;;;;3.75;1.30;;;12.10;99.90;;;;;;5106298;28;20048;-73
2022/07/28 01:05:18;;;;;;;4.95;1.45;;;12.10;99.90;;;;;;5076816;28;20054;-74
2022/07/28 01:08:11;;;;;;;4.10;1.45;;;12.10;99.90;;;;;;5086412;28;20047;-73
2022/07/28 01:10:50;;;;;;;4.22;1.30;;;11.90;99.90;;;;;;5086564;28;20394;-74
2022/07/28 01:13:27;;;;;;;4.30;1.25;;;11.80;99.90;;;;;;5095904;28;20055;-74
2022/07/28 01:16:02;;;;;;;3.88;1.25;;;11.80;99.90;;;;;;5075265;28;20075;-75
2022/07/28 01:18:33;;;;;;;4.30;1.20;;;11.80;99.90;;;;;;5078061;28;20035;-75
2022/07/28 01:21:06;;;;;;;3.97;1.52;;;11.90;99.90;;;;;;5110141;28;20097;-74
2022/07/28 01:23:31;;;;;;;3.58;1.40;;;11.90;99.90;;;;;;5089492;28;20040;-75
2022/07/28 01:26:51;;;;;;;4.35;1.33;;;11.90;99.90;;;;;;5113389;28;20501;-73
2022/07/28 01:29:22;;;;;;;5.40;1.85;;;11.90;99.90;;;;;;5004804;28;20041;-73
2022/07/28 01:31:55;;;;;;;4.20;1.60;;;11.60;99.90;;;;;;5077339;28;20470;-75
2022/07/28 01:34:31;;;;;;;4.35;1.50;;;11.50;99.90;;;;;;5093992;28;20043;-74
2022/07/28 01:37:10;;;;;;;3.60;1.25;;;11.50;99.90;;;;;;5095925;28;20051;-74
2022/07/28 01:39:39;;;;;;;4.35;1.40;;;11.60;99.90;;;;;;5090495;28;20055;-74
2022/07/28 01:42:07;;;;;;;3.53;1.30;;;11.60;99.90;;;;;;5082506;28;20101;-74
2022/07/28 01:44:39;;;;;;;5.15;1.33;;;11.60;99.90;;;;;;5092495;28;20043;-74
2022/07/28 01:47:06;;;;;;;6.20;1.52;;;11.60;99.90;;;;;;5095632;28;20055;-74
2022/07/28 01:49:33;;;;;;;3.85;1.30;;;11.60;99.90;;;;;;5094266;28;20104;-73
2022/07/28 01:52:01;;;;;;;4.00;1.33;;;11.60;99.90;;;;;;5095665;28;20466;-73
2022/07/28 01:54:29;;;;;;;4.78;1.42;;;11.60;99.90;;;;;;5092227;28;20055;-74
2022/07/28 01:56:58;;;;;;;5.22;1.45;;;11.60;99.90;;;;;;5078567;28;20048;-75
2022/07/28 01:59:27;;;;;;;4.40;1.20;;;11.60;99.90;;;;;;5078502;28;20047;-73
2022/07/28 02:01:53;;;;;;;3.47;1.20;;;11.60;99.90;;;;;;5074055;28;20075;-74
2022/07/28 02:04:22;;;;;;;3.65;1.42;;;11.70;99.90;;;;;;5112173;28;20480;-73
2022/07/28 02:06:51;;;;;;;2.80;1.20;;;11.70;99.90;;;;;;5095385;28;20048;-74
2022/07/28 02:09:20;;;;;;;4.45;1.20;;;11.70;99.90;;;;;;5095297;28;20050;-74
2022/07/28 02:11:48;;;;;;;3.58;1.20;;;11.80;99.90;;;;;;5094687;28;20479;-74
2022/07/28 02:14:19;;;;;;;4.53;1.30;;;11.70;99.90;;;;;;5078623;28;20130;-74
2022/07/28 02:16:50;;;;;;;4.05;1.30;;;11.60;99.90;;;;;;5095043;28;20054;-74
2022/07/28 02:19:17;;;;;;;4.40;1.33;;;11.60;99.90;;;;;;5094760;28;20079;-74
2022/07/28 02:21:46;;;;;;;3.28;1.27;;;11.70;99.90;;;;;;5095335;28;20106;-74
2022/07/28 02:24:12;;;;;;;4.53;1.40;;;11.60;99.90;;;;;;5083964;28;20467;-74
2022/07/28 02:26:48;;;;;;;3.35;1.30;;;11.60;99.90;;;;;;5080328;28;20066;-74
2022/07/28 02:29:19;;;;;;;4.15;1.40;;;11.60;99.90;;;;;;5084682;28;20436;-74
2022/07/28 02:31:56;;;;;;;3.92;1.30;;;11.60;99.90;;;;;;5093214;28;20578;-74
2022/07/28 02:34:23;;;;;;;4.28;1.20;;;11.70;99.90;;;;;;5093848;28;20506;-75
2022/07/28 02:36:56;;;;;;;4.63;1.30;;;11.70;99.90;;;;;;5079732;28;20386;-75
2022/07/28 02:39:33;;;;;;;5.00;1.90;;;11.60;99.90;;;;;;5086084;28;20399;-75
2022/07/28 02:42:12;;;;;;;5.70;1.60;;;11.60;99.90;;;;;;5095090;28;20043;-74
2022/07/28 02:44:43;;;;;;;3.08;1.17;;;11.40;99.90;;;;;;5094226;28;20059;-74
2022/07/28 02:47:15;;;;;;;4.35;1.38;;;11.30;99.90;;;;;;5097481;28;20558;-74
2022/07/28 02:49:42;;;;;;;3.38;1.13;;;11.30;99.90;;;;;;5102283;28;20081;-74
2022/07/28 02:52:10;;;;;;;5.65;1.40;;;11.30;99.90;;;;;;5094207;28;20052;-73
2022/07/28 02:54:37;;;;;;;3.67;1.20;;;11.30;99.90;;;;;;5081896;28;20409;-73
2022/07/28 02:57:04;;;;;;;4.40;1.20;;;11.30;99.90;;;;;;5098433;28;20047;-73
2022/07/28 02:59:30;;;;;;;3.63;1.20;;;11.30;99.90;;;;;;5098707;28;20487;-73
2022/07/28 03:01:57;;;;;;;3.78;1.25;;;11.30;99.90;;;;;;5082109;28;20058;-80
2022/07/28 03:07:08;;;;;;;5.10;1.50;;;11.40;99.90;;;;;;5116062;28;20535;-73
2022/07/28 03:09:45;;;;;;;3.80;1.30;;;11.40;99.90;;;;;;5094933;28;20075;-74
2022/07/28 03:12:11;;;;;;;5.28;1.33;;;11.30;99.90;;;;;;5089386;28;20053;-73
2022/07/28 03:14:37;;;;;;;4.68;1.30;;;11.30;99.90;;;;;;5098094;28;20051;-73
2022/07/28 03:17:04;;;;;;;3.35;1.27;;;11.20;99.90;;;;;;5098743;28;20082;-74
2022/07/28 03:19:29;;;;;;;3.90;1.33;;;11.20;99.90;;;;;;5090791;27;20043;-74
2022/07/28 03:21:55;;;;;;;4.30;1.40;;;11.30;99.90;;;;;;5081712;28;20095;-74
2022/07/28 03:24:24;;;;;;;3.83;1.30;;;11.30;99.90;;;;;;5098311;28;20044;-74
2022/07/28 03:27:12;;;;;;;4.45;1.20;;;11.30;99.90;;;;;;5097829;28;20483;-74
2022/07/28 03:29:40;;;;;;;3.95;1.40;;;11.30;99.90;;;;;;5097665;28;20039;-74
2022/07/28 03:32:07;;;;;;;5.22;1.40;;;11.30;99.90;;;;;;5081502;28;20047;-74
2022/07/28 03:34:33;;;;;;;3.22;1.17;;;11.30;99.90;;;;;;5093025;28;20125;-74
2022/07/28 03:37:05;;;;;;;4.28;1.40;;;11.20;99.90;;;;;;5094568;28;20124;-74
2022/07/28 03:39:37;;;;;;;5.18;1.40;;;11.20;99.90;;;;;;5077481;28;20048;-74
2022/07/28 03:42:04;;;;;;;5.22;1.88;;;11.10;99.90;;;;;;5077232;28;20474;-74
2022/07/28 03:44:30;;;;;;;6.53;2.00;;;11.00;99.90;;;;;;5077574;28;20076;-73
2022/07/28 03:46:56;;;;;;;6.97;1.98;;;10.90;99.90;;;;;;5093635;28;20113;-75
2022/07/28 03:49:21;;;;;;;6.05;2.30;;;10.80;99.90;;;;;;5093803;28;20044;-74
2022/07/28 03:51:47;;;;;;;4.70;1.58;;;10.70;99.90;;;;;;5077193;28;20096;-74
2022/07/28 03:54:13;;;;;;;4.88;1.80;;;10.60;99.90;;;;;;5093634;28;20495;-74
2022/07/28 03:56:39;;;;;;;5.57;2.25;;;10.60;99.90;;;;;;5095420;28;20093;-75
2022/07/28 03:59:04;;;;;;;4.00;1.67;;;10.50;99.90;;;;;;5085269;28;20555;-74
2022/07/28 04:01:30;;;;;;;3.80;1.42;;;10.40;99.90;;;;;;5094552;28;20055;-74
2022/07/28 04:03:55;;;;;;;3.10;1.20;;;10.40;99.90;;;;;;5090992;28;20205;-74
2022/07/28 04:06:21;;;;;;;3.72;1.30;;;10.40;99.90;;;;;;5056731;28;20059;-75
2022/07/28 04:08:47;;;;;;;3.25;1.33;;;10.50;99.90;;;;;;5086626;28;20044;-74
2022/07/28 04:11:12;;;;;;;3.35;1.30;;;10.50;99.90;;;;;;5077071;28;20040;-75
2022/07/28 04:13:38;;;;;;;4.20;1.30;;;10.60;99.90;;;;;;5094706;28;20052;-74
2022/07/28 04:16:05;;;;;;;5.55;1.55;;;10.70;99.90;;;;;;5068685;28;20041;-74
2022/07/28 04:18:31;;;;;;;4.05;1.48;;;10.70;99.90;;;;;;5093319;28;20048;-74
2022/07/28 04:20:57;;;;;;;4.07;1.30;;;10.70;99.90;;;;;;5076966;28;20040;-77
2022/07/28 04:23:24;;;;;;;4.07;1.55;;;10.80;99.90;;;;;;5093664;28;20448;-74
2022/07/28 04:25:49;;;;;;;5.45;1.88;;;10.70;99.90;;;;;;5094525;28;20044;-75
2022/07/28 04:28:15;;;;;;;4.30;1.40;;;11.20;99.90;;;;;;5094635;28;20047;-75
2022/07/28 04:30:41;;;;;;;3.40;1.30;;;10.60;99.90;;;;;;5095013;28;20078;-74
2022/07/28 04:33:07;;;;;;;5.25;1.92;;;10.60;99.90;;;;;;5092073;28;20556;-75
2022/07/28 04:35:33;;;;;;;3.53;1.30;;;10.50;99.90;;;;;;5076793;28;20052;-74
2022/07/28 04:37:59;;;;;;;4.20;1.60;;;10.60;99.90;;;;;;5090251;28;20052;-74
2022/07/28 04:40:26;;;;;;;5.78;2.17;;;10.60;99.90;;;;;;5092602;28;20039;-75
2022/07/28 04:42:53;;;;;;;4.93;1.88;;;10.60;99.90;;;;;;5076554;28;20504;-74
2022/07/28 04:45:19;;;;;;;5.55;1.90;;;10.60;99.90;;;;;;5092571;28;20498;-74
2022/07/28 04:47:44;;;;;;;4.38;1.83;;;10.60;99.90;;;;;;5055630;28;20045;-74
2022/07/28 04:50:14;;;;;;;6.20;1.70;;;10.60;99.90;;;;;;5089718;28;20048;-77
2022/07/28 04:52:40;;;;;;;4.95;1.70;;;10.60;99.90;;;;;;5092645;28;20056;-75
2022/07/28 04:55:06;;;;;;;6.47;2.13;;;10.70;99.90;;;;;;5076601;28;20144;-75
2022/07/28 04:57:32;;;;;;;6.28;2.78;;;10.70;99.90;;;;;;5092389;28;20044;-74
2022/07/28 05:00:01;;;;;;;6.32;2.30;;;10.60;99.90;;;;;;5047908;28;20060;-74
2022/07/28 05:02:27;;;;;;;5.25;2.00;;;10.60;99.90;;;;;;5092144;28;20051;-77
2022/07/28 05:04:53;;;;;;;5.50;2.05;;;10.70;99.90;;;;;;5083746;28;20044;-74
2022/07/28 05:07:19;;;;;;;6.03;1.90;;;10.70;99.90;;;;;;5091253;28;20059;-74
2022/07/28 05:09:44;;;;;;;6.40;2.75;;;10.60;99.90;;;;;;5092921;28;20048;-74
2022/07/28 05:12:10;;;;;;;7.78;3.10;;;10.70;99.90;;;;;;5093032;28;20052;-74
2022/07/28 05:14:36;;;;;;;8.70;3.58;;;10.70;99.90;;;;;;5093215;28;21665;-74
2022/07/28 05:17:02;;;;;;;7.13;3.17;;;10.60;99.90;;;;;;5093812;28;20048;-74
2022/07/28 05:19:27;;;;;;;5.65;2.88;;;10.70;99.90;;;;;;5101902;28;20075;-75
2022/07/28 05:21:53;;;;;;;6.43;2.90;;;10.80;99.90;;;;;;5092864;28;20086;-74
2022/07/28 05:24:19;;;;;;;5.85;3.10;;;10.90;99.90;;;;;;5093098;28;20095;-74
2022/07/28 05:26:44;;;;;;;6.93;2.90;;;11.10;99.90;;;;;;5093757;28;20490;-74
2022/07/28 05:29:10;;;;;;;9.18;3.70;;;11.60;99.90;;;;;;5093565;28;20089;-74
2022/07/28 05:31:36;;;;;;;7.05;3.03;;;12.40;99.90;;;;;;5090742;28;20082;-74
2022/07/28 05:34:02;;;;;;;8.00;3.30;;;13.10;99.90;;;;;;5079728;28;20380;-74
2022/07/28 05:36:27;;;;;;;6.90;3.00;;;13.90;99.90;;;;;;5075751;28;20058;-74
2022/07/28 05:38:53;;;;;;;7.30;2.90;;;14.40;99.90;;;;;;5068932;28;20523;-73
2022/07/28 05:41:19;;;;;;;6.15;3.13;;;15.50;99.90;;;;;;5086168;28;20043;-73
2022/07/28 05:43:44;;;;;;;7.45;3.08;;;16.20;99.90;;;;;;5054847;28;20067;-74
2022/07/28 05:46:10;;;;;;;6.70;2.80;;;16.80;99.90;;;;;;5073328;28;20053;-74
2022/07/28 05:48:36;;;;;;;6.10;2.80;;;17.80;99.90;;;;;;5070853;28;20058;-73
2022/07/28 05:51:01;;;;;;;7.88;2.90;;;18.30;99.90;;;;;;5089876;28;20044;-74
2022/07/28 05:53:27;;;;;;;5.63;2.50;;;18.80;99.90;;;;;;5074167;28;20036;-74
2022/07/28 05:55:53;;;;;;;6.47;2.85;;;18.90;99.90;;;;;;5092856;28;20173;-73
2022/07/28 05:58:22;;;;;;;7.35;2.67;;;19.50;99.90;;;;;;5091305;28;20081;-74
2022/07/28 06:00:49;;;;;;;7.97;2.67;;;19.80;99.60;;;;;;5074213;28;20047;-73
2022/07/28 06:03:15;;;;;;;6.30;2.30;;;19.90;96.20;;;;;;5090259;28;20563;-74
2022/07/28 06:05:40;;;;;;;8.23;2.30;;;20.60;96.50;;;;;;5090396;28;20067;-74
2022/07/28 06:08:06;;;;;;;7.18;2.28;;;20.90;93.10;;;;;;5090868;28;20091;-73
2022/07/28 06:13:17;;;;;;;6.35;2.40;;;20.90;92.80;;;;;;5092661;28;20072;-73
2022/07/28 06:15:46;;;;;;;6.90;2.30;;;21.60;93.30;;;;;;5092284;28;20048;-74
2022/07/28 06:18:11;;;;;;;5.95;1.98;;;21.50;91.30;;;;;;5089301;28;20380;-73
2022/07/28 06:20:37;;;;;;;6.93;2.00;;;21.90;92.20;;;;;;5089201;28;20051;-74
2022/07/28 06:23:03;;;;;;;6.80;1.92;;;22.60;90.10;;;;;;5074127;28;20047;-74
2022/07/28 06:25:30;;;;;;;4.95;1.75;;;22.80;84.80;;;;;;5074025;28;20062;-74
2022/07/28 06:27:58;;;;;;;7.05;1.77;;;22.70;77.40;;;;;;5089409;28;20102;-74
2022/07/28 06:30:24;;;;;;;5.25;1.88;;;22.90;76.80;;;;;;5094948;28;20075;-77
2022/07/28 06:32:51;;;;;;;4.85;1.63;;;22.50;76.10;;;;;;5077041;28;20080;-75
2022/07/28 06:35:17;;;;;;;7.32;2.03;;;22.70;78.10;;;;;;5094521;28;20063;-75
2022/07/28 06:37:48;;;;;;;5.88;1.60;;;22.40;74.90;;;;;;5095842;28;20040;-75
2022/07/28 06:40:15;;;;;;;5.38;1.60;;;22.40;76.20;;;;;;5093736;28;20471;-74
2022/07/28 06:42:42;;;;;;;7.70;1.92;;;22.60;76.90;;;;;;5078820;28;20130;-75
2022/07/28 06:45:09;;;;;;;6.20;1.77;;;22.10;72.40;;;;;;5095054;28;20123;-75
2022/07/28 06:47:35;;;;;;;5.97;1.73;;;21.60;74.30;;;;;;5099752;28;20533;-75
2022/07/28 06:50:01;;;;;;;5.43;1.50;;;21.30;78.70;;;;;;5101267;28;20082;-74
2022/07/28 06:52:27;;;;;;;5.47;1.55;;;22.40;77.30;;;;;;5096191;28;20032;-76
2022/07/28 06:54:53;;;;;;;6.68;1.52;;;22.10;75.50;;;;;;5095610;28;20051;-76
2022/07/28 06:57:22;;;;;;;5.05;1.30;;;22.30;73.90;;;;;;5095212;28;20114;-74
2022/07/28 06:59:48;;;;;;;6.05;1.33;;;22.30;73.80;;;;;;5093685;28;20040;-75
2022/07/28 07:02:15;;;;;;;4.90;1.30;;;22.10;69.10;;;;;;5094443;28;20052;-76
2022/07/28 07:04:41;;;;;;;4.32;1.05;;;21.60;72.20;;;;;;5091840;28;20399;-74
2022/07/28 07:07:07;;;;;;;5.05;1.00;;;21.30;72.70;;;;;;5094007;28;20475;-75
2022/07/28 07:09:33;;;;;;;5.35;1.15;;;20.60;70.80;;;;;;5059225;28;20051;-74
2022/07/28 07:11:59;;;;;;;6.30;1.30;;;20.70;75.50;;;;;;5092780;28;20048;-75
2022/07/28 07:14:25;;;;;;;5.20;1.23;;;20.70;75.60;;;;;;5076214;28;20051;-74
2022/07/28 07:16:50;;;;;;;5.30;1.10;;;20.50;75.40;;;;;;5095140;28;20040;-75
2022/07/28 07:19:16;;;;;;;7.00;1.35;;;20.80;72.40;;;;;;5088372;28;20052;-74
2022/07/28 07:21:42;;;;;;;5.20;1.20;;;20.30;74.00;;;;;;5080665;28;20057;-75
2022/07/28 07:24:10;;;;;;;4.93;1.20;;;20.20;76.90;;;;;;5085220;28;20040;-75
2022/07/28 07:26:36;;;;;;;4.78;1.30;;;20.20;78.50;;;;;;5095187;28;20052;-74
2022/07/28 07:29:03;;;;;;;7.15;1.35;;;20.30;76.70;;;;;;5086470;28;20440;-75
2022/07/28 07:31:31;;;;;;;6.82;1.30;;;19.80;76.40;;;;;;5092285;28;20111;-76
2022/07/28 07:33:56;;;;;;;6.03;1.27;;;19.90;79.10;;;;;;5095770;28;20432;-76
2022/07/28 07:36:22;;;;;;;5.03;1.10;;;20.10;79.60;;;;;;5105716;28;20113;-75
2022/07/28 07:38:48;;;;;;;6.18;1.23;;;20.20;78.30;;;;;;5101225;28;20383;-76
2022/07/28 07:41:13;;;;;;;5.05;1.17;;;20.60;77.90;;;;;;5073934;28;20040;-77
2022/07/28 07:43:39;;;;;;;4.93;1.00;;;19.90;75.00;;;;;;5111752;28;20108;-76
2022/07/28 07:46:06;;;;;;;3.85;1.10;;;19.80;75.20;;;;;;5082024;28;20056;-75
2022/07/28 07:48:32;;;;;;;4.78;1.27;;;19.60;77.80;;;;;;5084862;28;20091;-75
2022/07/28 07:50:57;;;;;;;4.05;1.27;;;19.50;78.60;;;;;;5090074;28;20079;-77
2022/07/28 07:53:23;;;;;;;4.72;1.23;;;19.20;77.40;;;;;;5103876;28;20035;-75
2022/07/28 07:55:50;;;;;;;4.32;1.00;;;19.50;79.00;;;;;;5102870;28;20056;-75
2022/07/28 07:58:16;;;;;;;4.53;1.10;;;19.70;77.40;;;;;;5085887;28;20473;-73
2022/07/28 08:00:41;;;;;;;3.70;1.10;;;20.00;76.50;;;;;;5105971;28;20054;-74
2022/07/28 08:03:08;;;;;;;4.63;1.25;;;20.10;77.10;;;;;;5087560;28;20052;-74
2022/07/28 08:05:34;;;;;;;3.97;1.10;;;19.90;78.20;;;;;;5090170;28;20142;-76
2022/07/28 08:08:00;;;;;;;4.70;1.20;;;20.00;78.80;;;;;;5067472;28;20134;-76
2022/07/28 08:10:25;;;;;;;5.28;1.23;;;19.70;74.80;;;;;;5070347;28;20101;-76
2022/07/28 08:12:51;;;;;;;4.70;1.27;;;19.50;76.60;;;;;;5104266;28;20055;-76
2022/07/28 08:15:17;;;;;;;5.97;1.30;;;19.90;78.60;;;;;;5106689;28;20036;-77
2022/07/28 08:17:42;;;;;;;4.68;1.20;;;20.60;75.20;;;;;;5068857;28;20043;-75
2022/07/28 08:20:09;;;;;;;5.80;1.40;;;21.00;76.50;;;;;;5097336;28;20092;-74
2022/07/28 08:22:49;;;;;;;3.45;0.98;;;21.10;73.30;;;;;;5083841;28;20047;-73
2022/07/28 08:25:15;;;;;;;4.13;1.10;;;21.80;71.20;;;;;;5088673;28;20122;-73
2022/07/28 08:27:41;;;;;;;4.40;1.20;;;22.10;66.10;;;;;;5087873;28;20573;-74
2022/07/28 08:30:07;;;;;;;3.13;1.02;;;22.00;67.30;;;;;;5092238;28;20389;-73
2022/07/28 08:32:33;;;;;;;3.92;1.17;;;22.30;67.80;;;;;;5109014;28;20040;-74
2022/07/28 08:34:59;;;;;;;6.00;1.20;;;22.40;65.80;;;;;;5087802;28;20063;-73
2022/07/28 08:37:24;;;;;;;4.43;1.08;;;22.60;65.70;;;;;;5096802;28;20436;-73
2022/07/28 08:39:50;;;;;;;3.40;0.98;;;22.90;66.00;;;;;;5062826;28;20046;-75
2022/07/28 08:42:37;;;;;;;4.85;1.13;;;23.10;60.60;;;;;;5080110;28;20039;-75
2022/07/28 08:45:06;;;;;;;4.72;1.02;;;23.70;59.10;;;;;;5089684;28;20478;-74
2022/07/28 08:47:35;;;;;;;4.70;1.00;;;23.60;55.70;;;;;;5094941;28;20051;-74
2022/07/28 08:50:01;;;;;;;5.38;1.20;;;23.30;55.80;;;;;;5068382;28;20047;-74
2022/07/28 08:52:31;;;;;;;3.65;1.05;;;23.30;57.00;;;;;;5073034;28;20378;-73
2022/07/28 08:55:00;;;;;;;4.22;1.40;;;22.90;56.70;;;;;;5112775;28;20509;-73
2022/07/28 08:57:42;;;;;;;4.72;1.50;;;22.80;58.70;;;;;;5093646;28;20054;-75
2022/07/28 09:00:09;;;;;;;5.72;1.80;;;22.40;58.80;;;;;;5087953;28;20040;-75
2022/07/28 09:02:39;;;;;;;4.22;1.23;;;21.90;58.90;;;;;;5093593;28;20059;-74
2022/07/28 09:05:06;;;;;;;3.83;1.10;;;21.70;60.30;;;;;;5094070;28;20048;-74
2022/07/28 09:07:33;;;;;;;5.18;1.25;;;21.60;60.60;;;;;;5094462;28;20490;-73
2022/07/28 09:10:01;;;;;;;3.63;1.20;;;21.50;61.30;;;;;;5100185;28;20035;-74
2022/07/28 09:12:27;;;;;;;5.53;1.33;;;21.30;63.20;;;;;;5113833;28;20050;-75
2022/07/28 09:14:53;;;;;;;3.72;1.00;;;21.10;64.10;;;;;;5113795;28;20040;-76
2022/07/28 09:17:18;;;;;;;3.85;1.02;;;21.60;62.30;;;;;;5095403;28;20040;-77
2022/07/28 09:19:44;;;;;;;6.57;1.20;;;21.90;62.70;;;;;;5124429;27;20049;-74
2022/07/28 09:22:10;;;;;;;5.97;1.20;;;21.60;62.80;;;;;;5056970;28;20105;-75
2022/07/28 09:24:40;;;;;;;4.53;1.08;;;21.90;62.70;;;;;;5089754;28;20051;-72
2022/07/28 09:27:08;;;;;;;4.30;1.00;;;22.20;61.50;;;;;;5062131;28;20044;-73
2022/07/28 09:29:40;;;;;;;5.38;1.15;;;22.50;60.50;;;;;;5078901;28;20043;-76
2022/07/28 09:32:06;;;;;;;;;;;22.40;59.50;;;;;;5108144;28;20040;-75
2022/07/28 09:34:45;;;;;;;3.40;0.93;;;22.50;59.20;;;;;;5092674;28;20441;-78
2022/07/28 09:37:25;;;;;;;5.72;1.20;;;22.70;61.00;;;;;;5089578;28;20071;-76
2022/07/28 09:39:53;;;;;;;5.32;1.10;;;22.20;58.70;;;;;;5078882;28;20060;-74
2022/07/28 09:42:19;;;;;;;4.50;1.08;;;21.80;60.70;;;;;;5077576;28;20057;-74
2022/07/28 09:45:06;;;;;;;5.97;1.20;;;22.10;62.10;;;;;;5095515;28;20055;-76
2022/07/28 09:47:32;;;;;;;4.32;1.00;;;21.80;62.50;;;;;;5087902;28;20048;-77
2022/07/28 09:49:58;;;;;;;5.63;1.23;;;22.30;59.60;;;;;;5082447;28;20371;-74
2022/07/28 09:52:35;;;;;;;4.30;1.02;;;22.10;58.50;;;;;;5076266;28;20069;-73
2022/07/28 09:55:10;;;;;;;4.65;1.20;;;22.10;59.70;;;;;;5095201;28;20052;-75
2022/07/28 09:57:37;;;;;;;4.88;1.13;;;21.90;60.80;;;;;;5075384;28;20113;-74
2022/07/28 10:00:07;;;;;;;4.13;1.10;;;21.90;61.10;;;;;;5078553;28;20059;-78
2022/07/28 10:02:33;;;;;;;4.20;1.20;;;21.70;60.50;;;;;;5074712;28;20040;-73
2022/07/28 10:04:59;;;;;;;4.57;1.20;;;21.90;60.80;;;;;;5075791;28;20467;-72
2022/07/28 10:07:28;;;;;;;3.35;1.10;;;22.10;60.70;;;;;;5090519;28;20096;-74
2022/07/28 10:10:03;;;;;;;3.90;1.05;;;22.10;59.70;;;;;;5077718;28;20077;-76
2022/07/28 10:12:32;;;;;;;3.50;1.00;;;22.60;58.00;;;;;;5094553;28;20044;-76
2022/07/28 10:16:09;;;;;;;9.48;1.60;;;22.70;57.20;;;;;;5095033;28;20055;-77
2022/07/28 10:17:55;;;;;;;4.75;1.20;;;22.80;56.90;;;;;;5107648;28;20047;-74
2022/07/28 10:20:22;;;;;;;5.78;1.20;;;22.80;58.00;;;;;;5087803;28;20055;-73
2022/07/28 10:22:48;;;;;;;4.32;1.20;;;22.70;58.50;;;;;;5086132;28;20386;-78
2022/07/28 10:25:15;;;;;;;3.88;1.10;;;22.50;58.30;;;;;;5080895;28;20084;-73
2022/07/28 10:27:42;;;;;;;3.85;1.10;;;22.80;57.80;;;;;;5084056;28;20055;-72
2022/07/28 10:30:08;;;;;;;4.93;1.27;;;22.60;57.00;;;;;;5099863;28;20044;-76
2022/07/28 10:32:43;;;;;;;2.95;0.98;;;22.60;57.00;;;;;;5107669;28;20530;-78
2022/07/28 10:35:16;;;;;;;4.80;1.13;;;22.70;55.30;;;;;;5098728;28;20047;-74
2022/07/28 10:37:50;;;;;;;3.97;1.00;;;23.00;55.80;;;;;;5105525;28;20538;-74
2022/07/28 10:40:19;;;;;;;5.55;1.10;;;23.10;54.60;;;;;;5094508;28;20115;-76
2022/07/28 10:42:45;;;;;;;4.32;1.10;;;23.10;53.00;;;;;;5089833;28;20388;-75
2022/07/28 10:45:12;;;;;;;3.70;0.90;;;22.80;55.10;;;;;;5113244;28;20051;-75
2022/07/28 10:47:37;;;;;;;4.88;1.20;;;23.00;54.30;;;;;;5114697;28;20051;-74
2022/07/28 10:50:04;;;;;;;4.28;1.00;;;23.00;52.30;;;;;;5081878;28;20047;-75
2022/07/28 10:52:31;;;;;;;3.65;0.90;;;22.80;55.30;;;;;;5093968;28;20051;-74
2022/07/28 10:55:17;;;;;;;6.53;1.20;;;23.10;53.70;;;;;;5095317;28;20052;-75
2022/07/28 10:58:09;;;;;;;3.42;1.08;;;23.30;54.40;;;;;;5101546;28;20059;-75
2022/07/28 11:00:48;;;;;;;3.40;1.10;;;23.60;52.90;;;;;;5087163;28;20607;-75
2022/07/28 11:03:32;;;;;;;3.38;1.00;;;23.40;52.40;;;;;;5093477;28;20094;-76
2022/07/28 11:06:24;;;;;;;4.72;1.10;;;22.90;52.50;;;;;;5112597;28;20055;-77
2022/07/28 11:08:53;;;;;;;4.45;1.10;;;23.10;52.60;;;;;;5107445;28;20071;-73
2022/07/28 11:11:50;;;;;;;3.80;1.10;;;23.10;53.10;;;;;;5093938;28;20032;-74
2022/07/28 11:14:36;;;;;;;3.17;1.00;;;23.00;53.80;;;;;;5114057;28;20522;-77
2022/07/28 11:17:04;;;;;;;4.78;1.15;;;22.70;52.60;;;;;;5116119;28;20541;-75
2022/07/28 11:19:42;;;;;;;3.90;1.13;;;22.60;54.70;;;;;;5115128;28;20074;-76
2022/07/28 11:22:14;;;;;;;5.40;1.27;;;23.00;54.00;;;;;;5116204;28;20055;-74
2022/07/28 11:25:12;;;;;;;4.57;1.20;;;23.40;54.80;;;;;;5097674;28;20062;-76
2022/07/28 11:27:50;;;;;;;3.35;0.95;;;23.50;53.40;;;;;;5033523;28;20052;-77
2022/07/28 11:30:30;;;;;;;4.45;1.00;;;22.80;53.30;;;;;;5097087;28;20048;-76
2022/07/28 11:32:57;;;;;;;4.45;1.13;;;22.50;55.40;;;;;;5115036;28;20143;-75
2022/07/28 11:35:30;;;;;;;4.63;1.20;;;22.60;55.70;;;;;;5097698;28;20051;-75
2022/07/28 11:38:00;;;;;;;3.85;1.10;;;22.30;55.40;;;;;;5095278;28;20043;-73
2022/07/28 11:40:29;;;;;;;4.35;1.10;;;22.30;56.10;;;;;;5108895;28;20050;-73
2022/07/28 11:43:20;;;;;;;5.10;1.38;;;22.20;57.00;;;;;;5094246;28;20122;-75
2022/07/28 11:45:47;;;;;;;5.90;1.20;;;22.00;56.30;;;;;;5103105;28;20049;-76
2022/07/28 11:48:13;;;;;;;4.35;1.10;;;22.10;56.30;;;;;;5097053;28;20394;-75
2022/07/28 11:50:40;;;;;;;3.75;1.20;;;22.20;56.60;;;;;;5111291;28;20039;-76
2022/07/28 11:53:06;;;;;;;5.88;1.23;;;22.20;56.30;;;;;;5097284;28;20497;-76
2022/07/28 11:55:32;;;;;;;6.03;1.27;;;22.60;57.00;;;;;;5115955;28;20043;-75
2022/07/28 11:58:01;;;;;;;3.78;1.10;;;22.40;56.70;;;;;;5117282;27;20534;-76
2022/07/28 12:00:28;;;;;;;4.13;1.10;;;22.60;57.20;;;;;;5101083;28;20056;-77
2022/07/28 12:02:55;;;;;;;3.97;1.30;;;23.00;54.60;;;;;;5115029;28;20195;-74
2022/07/28 12:05:21;;;;;;;5.38;1.10;;;23.00;54.30;;;;;;5115148;28;20381;-75
2022/07/28 12:07:49;;;;;;;5.93;1.30;;;23.00;55.90;;;;;;5114003;28;20053;-75
2022/07/28 12:10:30;;;;;;;4.40;0.95;;;22.90;52.90;;;;;;5096654;28;20058;-75
2022/07/28 12:12:59;;;;;;;4.82;1.10;;;22.90;54.10;;;;;;5096087;28;20539;-76
2022/07/28 12:15:26;;;;;;;4.55;1.20;;;22.90;54.30;;;;;;5075483;28;20047;-73
2022/07/28 12:17:51;;;;;;;3.78;1.00;;;22.90;55.50;;;;;;5078831;28;20112;-74
2022/07/28 12:20:18;;;;;;;5.32;1.10;;;23.00;56.00;;;;;;5084653;28;20040;-75
2022/07/28 12:22:58;;;;;;;4.13;1.08;;;22.90;55.60;;;;;;5080206;28;20056;-75
2022/07/28 12:25:24;;;;;;;3.15;1.02;;;22.70;55.60;;;;;;5095390;28;20138;-73
2022/07/28 12:27:50;;;;;;;4.40;1.15;;;22.60;56.00;;;;;;5097094;28;20131;-75
2022/07/28 12:30:24;;;;;;;3.15;0.90;;;22.70;56.20;;;;;;5113834;28;20032;-74
2022/07/28 12:32:50;;;;;;;3.75;0.90;;;22.50;55.00;;;;;;5093229;28;20090;-77
2022/07/28 12:35:16;;;;;;;4.65;1.10;;;22.20;54.40;;;;;;5114804;28;20043;-75
2022/07/28 12:37:46;;;;;;;5.55;1.10;;;22.10;55.30;;;;;;5079648;28;20044;-77
2022/07/28 12:40:14;;;;;;;5.85;1.20;;;22.20;56.50;;;;;;5113872;28;20123;-75
2022/07/28 12:42:40;;;;;;;4.35;1.10;;;22.10;57.80;;;;;;5082049;28;20056;-75
2022/07/28 12:45:08;;;;;;;4.93;1.20;;;22.10;58.50;;;;;;5097027;28;20135;-74
2022/07/28 12:47:35;;;;;;;4.38;1.00;;;22.00;57.90;;;;;;5099063;27;20055;-76
2022/07/28 12:50:19;;;;;;;7.15;1.20;;;22.10;57.90;;;;;;5096905;28;20039;-76
2022/07/28 12:53:03;;;;;;;3.78;1.10;;;22.10;58.60;;;;;;5095563;28;20044;-80
2022/07/28 12:55:31;;;;;;;4.53;1.17;;;21.90;57.50;;;;;;5094339;28;20124;-82
2022/07/28 12:57:57;;;;;;;4.80;1.10;;;21.80;56.50;;;;;;5079060;28;20051;-73
2022/07/28 13:00:30;;;;;;;4.82;1.30;;;21.80;57.50;;;;;;5092813;28;20386;-74
2022/07/28 13:02:58;;;;;;;4.53;1.10;;;21.90;58.20;;;;;;5083599;28;20176;-76
2022/07/28 13:05:27;;;;;;;5.40;1.10;;;22.10;57.60;;;;;;5096180;28;20058;-74